createdAt,value
2019-05-18T00:00:13.488Z,25.40
2019-05-18T00:01:13.496Z,26.20
2019-05-18T00:02:13.455Z,26.00
2019-05-18T00:03:13.456Z,26.40
2019-05-18T00:04:13.444Z,25.00
2019-05-18T00:05:13.434Z,24.70
2019-05-18T00:06:13.454Z,25.50
2019-05-18T00:07:13.444Z,25.50
2019-05-18T00:08:13.405Z,25.00
2019-05-18T00:09:13.385Z,26.20
2019-05-18T00:10:13.374Z,26.50
2019-05-18T00:11:13.371Z,26.30
2019-05-18T00:12:13.379Z,26.20
2019-05-18T00:13:13.345Z,26.20
2019-05-18T00:14:13.343Z,27.20
2019-05-18T00:15:13.323Z,27.10
2019-05-18T00:16:13.327Z,28.40
2019-05-18T00:17:24.910Z,27.10
2019-05-18T00:18:14.324Z,26.80
2019-05-18T00:19:13.277Z,26.90
2019-05-18T00:20:13.265Z,26.90
2019-05-18T00:21:13.286Z,26.00
2019-05-18T00:22:13.251Z,26.00
2019-05-18T00:23:13.239Z,26.00
2019-05-18T00:24:13.245Z,27.90
2019-05-18T00:25:13.221Z,28.10
2019-05-18T00:26:13.211Z,26.80
2019-05-18T00:27:13.187Z,27.70
2019-05-18T00:28:13.221Z,27.50
2019-05-18T00:29:13.170Z,27.10
2019-05-18T00:30:13.218Z,27.40
2019-05-18T00:31:13.200Z,27.30
2019-05-18T00:32:13.170Z,27.60
2019-05-18T00:33:13.151Z,26.50
2019-05-18T00:34:13.156Z,27.20
2019-05-18T00:35:13.115Z,27.30
2019-05-18T00:36:13.103Z,27.60
2019-05-18T00:37:13.113Z,27.40
2019-05-18T00:38:13.084Z,27.00
2019-05-18T00:39:13.113Z,27.10
2019-05-18T00:40:13.090Z,26.30
2019-05-18T00:41:13.066Z,27.30
2019-05-18T00:42:13.069Z,28.00
2019-05-18T00:43:13.051Z,26.40
2019-05-18T00:44:13.050Z,26.50
2019-05-18T00:45:13.049Z,26.70
2019-05-18T00:46:13.008Z,26.50
2019-05-18T00:47:12.979Z,27.00
2019-05-18T00:48:12.979Z,27.80
2019-05-18T00:49:12.960Z,27.60
2019-05-18T00:50:12.968Z,27.60
2019-05-18T00:51:12.944Z,27.20
2019-05-18T00:52:12.940Z,28.60
2019-05-18T00:53:12.918Z,27.40
2019-05-18T00:54:12.912Z,28.30
2019-05-18T00:55:12.930Z,28.50
2019-05-18T00:56:12.897Z,28.20
2019-05-18T00:57:12.873Z,29.10
2019-05-18T00:58:12.859Z,29.20
2019-05-18T00:59:16.102Z,29.40
2019-05-18T01:00:12.855Z,29.80
2019-05-18T01:01:12.883Z,30.50
2019-05-18T01:02:12.850Z,31.10
2019-05-18T01:03:12.842Z,31.10
2019-05-18T01:04:12.798Z,31.10
2019-05-18T01:05:12.802Z,30.50
2019-05-18T01:06:12.803Z,31.60
2019-05-18T01:07:12.827Z,29.80
2019-05-18T01:08:12.779Z,31.10
2019-05-18T01:09:12.757Z,29.70
2019-05-18T01:10:12.771Z,30.00
2019-05-18T01:11:12.787Z,30.40
2019-05-18T01:12:12.714Z,28.50
2019-05-18T01:13:12.705Z,29.80
2019-05-18T01:14:12.693Z,29.50
2019-05-18T01:15:12.686Z,30.20
2019-05-18T01:16:12.716Z,30.00
2019-05-18T01:17:12.682Z,29.70
2019-05-18T01:18:12.665Z,28.80
2019-05-18T01:19:12.646Z,28.90
2019-05-18T01:20:12.639Z,29.40
2019-05-18T01:21:12.658Z,29.20
2019-05-18T01:22:12.637Z,30.30
2019-05-18T01:23:12.624Z,29.00
2019-05-18T01:24:12.606Z,29.20
2019-05-18T01:25:12.576Z,29.50
2019-05-18T01:26:12.581Z,31.80
2019-05-18T01:27:12.956Z,29.90
2019-05-18T01:28:12.570Z,30.20
2019-05-18T01:29:12.558Z,30.20
2019-05-18T01:30:12.536Z,30.40
2019-05-18T01:31:12.517Z,31.20
2019-05-18T01:32:12.531Z,30.50
2019-05-18T01:33:12.506Z,31.10
2019-05-18T01:34:12.479Z,31.00
2019-05-18T01:35:12.524Z,30.40
2019-05-18T01:36:12.500Z,30.90
2019-05-18T01:37:12.485Z,30.80
2019-05-18T01:38:12.438Z,30.80
2019-05-18T01:39:12.463Z,32.00
2019-05-18T01:40:12.420Z,33.70
2019-05-18T01:41:12.404Z,33.70
2019-05-18T01:42:12.407Z,32.00
2019-05-18T01:43:12.394Z,34.20
2019-05-18T01:44:12.424Z,33.70
2019-05-18T01:45:16.850Z,33.00
2019-05-18T01:46:13.353Z,33.10
2019-05-18T01:47:12.343Z,33.00
2019-05-18T01:48:14.366Z,33.10
2019-05-18T01:49:12.346Z,35.30
2019-05-18T01:50:12.301Z,33.60
2019-05-18T01:51:12.304Z,34.30
2019-05-18T01:52:12.298Z,34.00
2019-05-18T01:53:12.312Z,32.60
2019-05-18T01:54:12.276Z,33.30
2019-05-18T01:55:12.267Z,34.10
2019-05-18T01:56:12.267Z,34.30
2019-05-18T01:57:12.245Z,33.60
2019-05-18T01:58:12.230Z,33.00
2019-05-18T01:59:12.260Z,33.90
2019-05-18T02:00:12.210Z,34.80
2019-05-18T02:01:12.202Z,34.00
2019-05-18T02:02:12.199Z,34.10
2019-05-18T02:03:12.178Z,35.90
2019-05-18T02:04:12.199Z,34.00
2019-05-18T02:05:12.153Z,35.30
2019-05-18T02:06:12.156Z,36.60
2019-05-18T02:07:12.178Z,35.40
2019-05-18T02:08:12.146Z,35.00
2019-05-18T02:09:12.124Z,34.80
2019-05-18T02:10:12.126Z,34.60
2019-05-18T02:11:12.102Z,35.50
2019-05-18T02:12:12.108Z,34.70
2019-05-18T02:13:12.085Z,36.10
2019-05-18T02:14:12.055Z,35.90
2019-05-18T02:15:12.051Z,35.40
2019-05-18T02:16:12.067Z,36.10
2019-05-18T02:17:12.036Z,35.50
2019-05-18T02:18:12.018Z,36.90
2019-05-18T02:19:12.010Z,35.00
2019-05-18T02:20:12.020Z,37.10
2019-05-18T02:21:11.997Z,37.10
2019-05-18T02:22:11.972Z,37.50
2019-05-18T02:23:11.999Z,37.00
2019-05-18T02:24:11.954Z,37.20
2019-05-18T02:25:11.939Z,36.50
2019-05-18T02:26:11.938Z,37.00
2019-05-18T02:27:11.954Z,36.70
2019-05-18T02:28:11.924Z,36.90
2019-05-18T02:29:11.905Z,37.30
2019-05-18T02:30:16.761Z,36.10
2019-05-18T02:31:12.905Z,37.40
2019-05-18T02:32:11.912Z,39.30
2019-05-18T02:33:11.894Z,38.20
2019-05-18T02:34:11.846Z,38.20
2019-05-18T02:35:11.851Z,39.70
2019-05-18T02:36:11.836Z,38.00
2019-05-18T02:37:11.828Z,40.60
2019-05-18T02:38:11.845Z,38.10
2019-05-18T02:39:11.820Z,39.10
2019-05-18T02:40:11.791Z,38.90
2019-05-18T02:41:11.787Z,38.90
2019-05-18T02:42:11.787Z,40.70
2019-05-18T02:43:11.760Z,39.20
2019-05-18T02:44:11.779Z,38.50
2019-05-18T02:45:11.731Z,42.00
2019-05-18T02:46:11.724Z,42.20
2019-05-18T02:47:11.716Z,41.20
2019-05-18T02:48:11.721Z,40.30
2019-05-18T02:49:11.728Z,40.20
2019-05-18T02:50:11.679Z,42.30
2019-05-18T02:51:12.036Z,41.50
2019-05-18T02:52:11.658Z,41.90
2019-05-18T02:53:11.658Z,42.60
2019-05-18T02:54:11.688Z,40.70
2019-05-18T02:55:11.634Z,41.10
2019-05-18T02:56:11.658Z,41.50
2019-05-18T02:57:11.610Z,41.90
2019-05-18T02:58:11.627Z,41.10
2019-05-18T02:59:11.592Z,41.00
2019-05-18T03:00:11.609Z,41.20
2019-05-18T03:01:11.572Z,41.80
2019-05-18T03:02:11.557Z,41.50
2019-05-18T03:03:11.537Z,43.60
2019-05-18T03:04:11.533Z,41.10
2019-05-18T03:05:11.542Z,43.30
2019-05-18T03:06:11.534Z,40.80
2019-05-18T03:07:11.613Z,41.10
2019-05-18T03:08:11.617Z,40.80
2019-05-18T03:09:11.494Z,40.00
2019-05-18T03:10:11.501Z,40.70
2019-05-18T03:11:11.508Z,41.00
2019-05-18T03:12:11.457Z,40.80
2019-05-18T03:13:11.453Z,40.60
2019-05-18T03:14:11.467Z,41.60
2019-05-18T03:15:11.429Z,41.60
2019-05-18T03:16:11.471Z,40.90
2019-05-18T03:17:11.402Z,40.60
2019-05-18T03:18:11.399Z,39.10
2019-05-18T03:19:11.377Z,39.40
2019-05-18T03:20:11.373Z,40.30
2019-05-18T03:21:11.414Z,39.10
2019-05-18T03:22:11.352Z,40.20
2019-05-18T03:23:11.391Z,40.20
2019-05-18T03:24:11.350Z,39.30
2019-05-18T03:25:11.366Z,39.60
2019-05-18T03:26:11.386Z,39.40
2019-05-18T03:27:11.314Z,40.80
2019-05-18T03:28:11.301Z,39.30
2019-05-18T03:29:11.276Z,38.80
2019-05-18T03:30:11.274Z,40.60
2019-05-18T03:31:11.276Z,39.90
2019-05-18T03:32:11.283Z,39.80
2019-05-18T03:33:11.268Z,41.70
2019-05-18T03:34:11.235Z,42.40
2019-05-18T03:35:11.878Z,42.30
2019-05-18T03:36:11.211Z,44.10
2019-05-18T03:37:11.233Z,42.30
2019-05-18T03:38:11.170Z,43.50
2019-05-18T03:39:11.172Z,46.00
2019-05-18T03:40:11.176Z,42.60
2019-05-18T03:41:11.161Z,46.70
2019-05-18T03:42:11.181Z,45.40
2019-05-18T03:43:11.161Z,47.30
2019-05-18T03:44:11.209Z,47.40
2019-05-18T03:45:11.116Z,47.70
2019-05-18T03:46:11.100Z,48.00
2019-05-18T03:47:11.112Z,48.20
2019-05-18T03:48:11.123Z,49.20
2019-05-18T03:49:25.407Z,46.90
2019-05-18T03:50:12.052Z,48.10
2019-05-18T03:51:11.048Z,47.50
2019-05-18T03:52:11.030Z,46.40
2019-05-18T03:53:11.067Z,46.10
2019-05-18T03:54:11.008Z,46.30
2019-05-18T03:55:11.009Z,45.50
2019-05-18T03:56:10.981Z,46.10
2019-05-18T03:57:10.979Z,44.70
2019-05-18T03:58:11.017Z,44.60
2019-05-18T03:59:10.983Z,43.90
2019-05-18T04:00:10.962Z,43.20
2019-05-18T04:01:10.926Z,44.70
2019-05-18T04:02:10.968Z,45.00
2019-05-18T04:03:10.906Z,43.50
2019-05-18T04:04:10.932Z,42.90
2019-05-18T04:05:10.905Z,42.60
2019-05-18T04:06:10.883Z,42.10
2019-05-18T04:07:10.876Z,42.60
2019-05-18T04:08:10.874Z,43.00
2019-05-18T04:09:10.866Z,42.80
2019-05-18T04:10:10.865Z,43.70
2019-05-18T04:11:10.840Z,41.60
2019-05-18T04:12:10.833Z,42.40
2019-05-18T04:13:10.803Z,42.90
2019-05-18T04:14:10.799Z,42.10
2019-05-18T04:15:10.802Z,41.30
2019-05-18T04:16:10.816Z,40.90
2019-05-18T04:17:10.771Z,40.90
2019-05-18T04:18:10.805Z,40.70
2019-05-18T04:19:10.738Z,42.10
2019-05-18T04:20:10.754Z,42.40
2019-05-18T04:21:10.752Z,41.90
2019-05-18T04:22:10.730Z,43.50
2019-05-18T04:23:10.698Z,41.70
2019-05-18T04:24:10.754Z,42.30
2019-05-18T04:25:10.679Z,42.90
2019-05-18T04:26:10.678Z,42.10
2019-05-18T04:27:10.677Z,42.00
2019-05-18T04:28:14.061Z,41.70
2019-05-18T04:29:10.678Z,43.90
2019-05-18T04:30:10.692Z,41.60
2019-05-18T04:31:10.623Z,42.10
2019-05-18T04:32:10.655Z,41.50
2019-05-18T04:33:10.615Z,40.60
2019-05-18T04:34:10.624Z,42.20
2019-05-18T04:35:10.633Z,42.00
2019-05-18T04:36:11.493Z,41.20
2019-05-18T04:37:11.444Z,42.00
2019-05-18T04:38:10.756Z,42.60
2019-05-18T04:39:11.971Z,42.40
2019-05-18T04:40:10.553Z,40.80
2019-05-18T04:41:10.561Z,42.70
2019-05-18T04:42:10.512Z,41.50
2019-05-18T04:43:10.492Z,41.90
2019-05-18T04:44:15.386Z,42.50
2019-05-18T04:45:10.608Z,41.80
2019-05-18T04:46:10.500Z,41.30
2019-05-18T04:47:10.538Z,41.80
2019-05-18T04:48:10.460Z,40.60
2019-05-18T04:49:10.522Z,41.80
2019-05-18T04:50:10.420Z,41.90
2019-05-18T04:51:10.409Z,41.60
2019-05-18T04:52:10.420Z,40.80
2019-05-18T04:53:10.397Z,40.00
2019-05-18T04:54:10.362Z,41.50
2019-05-18T04:55:10.362Z,40.70
2019-05-18T04:56:10.343Z,40.90
2019-05-18T04:57:10.351Z,40.10
2019-05-18T04:58:10.385Z,40.90
2019-05-18T04:59:10.396Z,40.80
2019-05-18T05:00:10.495Z,39.30
2019-05-18T05:01:10.435Z,40.50
2019-05-18T05:02:10.310Z,40.10
2019-05-18T05:03:10.352Z,39.70
2019-05-18T05:04:10.358Z,39.50
2019-05-18T05:05:10.405Z,39.70
2019-05-18T05:06:10.253Z,39.40
2019-05-18T05:07:10.250Z,40.00
2019-05-18T05:08:10.232Z,39.40
2019-05-18T05:09:10.224Z,39.50
2019-05-18T05:10:10.214Z,39.90
2019-05-18T05:11:10.223Z,38.50
2019-05-18T05:12:10.183Z,38.10
2019-05-18T05:13:10.179Z,37.80
2019-05-18T05:14:10.149Z,38.40
2019-05-18T05:15:10.143Z,37.80
2019-05-18T05:16:10.182Z,38.70
2019-05-18T05:17:10.192Z,37.10
2019-05-18T05:18:10.120Z,37.70
2019-05-18T05:19:10.104Z,37.20
2019-05-18T05:20:19.376Z,36.30
2019-05-18T05:21:11.131Z,36.80
2019-05-18T05:22:10.066Z,35.80
2019-05-18T05:23:10.075Z,37.00
2019-05-18T05:24:10.040Z,37.10
2019-05-18T05:25:10.040Z,36.60
2019-05-18T05:26:19.029Z,35.00
2019-05-18T05:27:10.029Z,36.10
2019-05-18T05:28:10.028Z,36.00
2019-05-18T05:29:10.088Z,35.60
2019-05-18T05:30:09.987Z,36.00
2019-05-18T05:31:09.987Z,35.50
2019-05-18T05:32:09.991Z,35.70
2019-05-18T05:33:09.982Z,35.50
2019-05-18T05:34:11.248Z,34.50
2019-05-18T05:35:10.002Z,34.50
2019-05-18T05:36:09.932Z,34.50
2019-05-18T05:37:10.017Z,34.30
2019-05-18T05:38:09.912Z,34.20
2019-05-18T05:39:09.945Z,33.40
2019-05-18T05:40:09.883Z,33.30
2019-05-18T05:41:16.179Z,33.30
2019-05-18T05:42:10.901Z,33.40
2019-05-18T05:43:10.560Z,33.10
2019-05-18T05:44:09.870Z,32.30
2019-05-18T05:45:09.881Z,32.50
2019-05-18T05:46:09.854Z,32.20
2019-05-18T05:47:09.840Z,33.80
2019-05-18T05:48:09.831Z,32.70
2019-05-18T05:49:10.068Z,32.90
2019-05-18T05:50:09.796Z,31.40
2019-05-18T05:51:09.793Z,30.90
2019-05-18T05:52:09.749Z,31.90
2019-05-18T05:53:11.610Z,31.60
2019-05-18T05:54:09.772Z,31.90
2019-05-18T05:55:10.618Z,30.20
2019-05-18T05:56:09.728Z,30.60
2019-05-18T05:57:09.756Z,30.80
2019-05-18T05:58:12.541Z,31.30
2019-05-18T05:59:09.739Z,28.70
2019-05-18T06:00:09.673Z,28.70
2019-05-18T06:01:09.663Z,28.70
2019-05-18T06:02:19.027Z,28.00
2019-05-18T06:03:26.049Z,28.00
2019-05-18T06:05:38.584Z,27.20
2019-05-18T06:06:47.101Z,27.60
2019-05-18T06:07:47.137Z,27.80
2019-05-18T06:08:48.129Z,28.00
2019-05-18T06:09:46.683Z,27.60
2019-05-18T06:10:37.974Z,27.50
2019-05-18T06:11:37.960Z,28.40
2019-05-18T06:12:37.945Z,27.00
2019-05-18T06:13:37.933Z,26.30
2019-05-18T06:14:37.920Z,27.10
2019-05-18T06:15:37.923Z,25.60
2019-05-18T06:16:39.722Z,25.30
2019-05-18T06:17:37.854Z,25.60
2019-05-18T06:18:37.843Z,25.00
2019-05-18T06:19:37.851Z,24.20
2019-05-18T06:20:50.955Z,23.80
2019-05-18T06:21:38.880Z,23.20
2019-05-18T06:22:37.812Z,23.30
2019-05-18T06:23:37.827Z,22.70
2019-05-18T06:24:37.788Z,22.80
2019-05-18T06:25:37.803Z,22.30
2019-05-18T06:26:38.576Z,21.50
2019-05-18T06:27:38.755Z,22.10
2019-05-18T06:28:37.750Z,21.40
2019-05-18T06:29:37.728Z,20.30
2019-05-18T06:30:37.715Z,20.10
2019-05-18T06:31:37.697Z,19.30
2019-05-18T06:32:37.723Z,19.10
2019-05-18T06:33:37.685Z,19.10
2019-05-18T06:34:38.607Z,18.70
2019-05-18T06:35:37.689Z,18.10
2019-05-18T06:36:37.685Z,17.40
2019-05-18T06:37:38.604Z,17.70
2019-05-18T06:38:37.671Z,17.40
2019-05-18T06:39:37.634Z,17.40
2019-05-18T06:40:37.671Z,16.20
2019-05-18T06:41:37.662Z,15.40
2019-05-18T06:42:37.638Z,15.50
2019-05-18T06:43:37.620Z,15.60
2019-05-18T06:44:37.720Z,16.50
2019-05-18T06:45:38.291Z,15.90
2019-05-18T06:46:38.788Z,14.10
2019-05-18T06:47:37.578Z,13.80
2019-05-18T06:48:37.590Z,13.70
2019-05-18T06:49:37.529Z,14.00
2019-05-18T06:50:38.242Z,13.50
2019-05-18T06:51:38.173Z,13.90
2019-05-18T06:52:37.475Z,13.80
2019-05-18T06:53:37.515Z,13.70
2019-05-18T06:54:38.327Z,13.30
2019-05-18T06:55:38.181Z,13.40
2019-05-18T06:56:37.462Z,13.30
2019-05-18T06:57:37.495Z,12.90
2019-05-18T06:58:37.429Z,12.90
2019-05-18T06:59:37.420Z,13.20
2019-05-18T07:00:37.438Z,12.70
2019-05-18T07:01:37.401Z,12.80
2019-05-18T07:02:37.400Z,13.00
2019-05-18T07:03:37.410Z,13.20
2019-05-18T07:04:37.356Z,12.70
2019-05-18T07:05:37.435Z,12.90
2019-05-18T07:06:38.129Z,12.30
2019-05-18T07:07:37.354Z,12.40
2019-05-18T07:08:37.336Z,12.50
2019-05-18T07:09:38.351Z,12.50
2019-05-18T07:10:37.316Z,12.20
2019-05-18T07:11:38.108Z,11.50
2019-05-18T07:12:37.291Z,12.30
2019-05-18T07:13:37.357Z,12.30
2019-05-18T07:14:37.387Z,12.10
2019-05-18T07:15:37.280Z,12.50
2019-05-18T07:16:37.226Z,12.20
2019-05-18T07:17:37.227Z,12.10
2019-05-18T07:18:37.227Z,12.10
2019-05-18T07:19:37.203Z,11.50
2019-05-18T07:20:37.183Z,11.80
2019-05-18T07:21:37.203Z,11.60
2019-05-18T07:22:37.173Z,11.80
2019-05-18T07:23:37.169Z,11.40
2019-05-18T07:24:37.244Z,11.50
2019-05-18T07:25:37.136Z,11.60
2019-05-18T07:26:37.303Z,11.70
2019-05-18T07:27:37.169Z,11.00
2019-05-18T07:28:37.113Z,11.10
2019-05-18T07:29:37.104Z,11.30
2019-05-18T07:30:37.126Z,10.80
2019-05-18T07:31:37.620Z,11.00
2019-05-18T07:32:37.058Z,11.30
2019-05-18T07:33:37.058Z,10.60
2019-05-18T07:34:37.087Z,11.20
2019-05-18T07:35:38.115Z,11.70
2019-05-18T07:36:37.050Z,11.20
2019-05-18T07:37:37.042Z,12.10
2019-05-18T07:38:37.050Z,12.10
2019-05-18T07:39:36.980Z,12.10
2019-05-18T07:40:36.988Z,12.10
2019-05-18T07:41:46.370Z,12.50
2019-05-18T07:42:38.018Z,12.10
2019-05-18T07:43:37.142Z,11.50
2019-05-18T07:44:37.051Z,11.30
2019-05-18T07:45:36.964Z,10.90
2019-05-18T07:46:36.971Z,10.90
2019-05-18T07:47:37.082Z,11.00
2019-05-18T07:48:38.626Z,10.80
2019-05-18T07:49:37.086Z,10.70
2019-05-18T07:51:55.019Z,11.00
2019-05-18T07:52:55.601Z,10.70
2019-05-18T07:53:54.365Z,10.30
2019-05-18T07:55:01.089Z,10.80
2019-05-18T07:55:54.259Z,10.80
2019-05-18T07:56:54.240Z,10.50
2019-05-18T07:57:54.216Z,10.50
2019-05-18T07:58:54.419Z,10.20
2019-05-18T07:59:54.222Z,10.20
2019-05-18T08:00:54.186Z,10.00
2019-05-18T08:01:54.273Z,10.00
2019-05-18T08:02:55.078Z,9.30
2019-05-18T08:03:55.082Z,9.60
2019-05-18T08:04:54.175Z,9.30
2019-05-18T08:05:54.199Z,9.10
2019-05-18T08:06:54.169Z,9.60
2019-05-18T08:07:54.184Z,9.40
2019-05-18T08:08:54.148Z,9.20
2019-05-18T08:09:54.159Z,9.20
2019-05-18T08:10:54.182Z,9.50
2019-05-18T08:11:54.138Z,9.30
2019-05-18T08:12:54.149Z,8.80
2019-05-18T08:13:54.126Z,9.10
2019-05-18T08:14:54.052Z,9.20
2019-05-18T08:15:54.079Z,9.50
2019-05-18T08:16:54.065Z,8.60
2019-05-18T08:17:54.587Z,8.30
2019-05-18T08:18:54.064Z,9.60
2019-05-18T08:19:54.045Z,9.00
2019-05-18T08:20:54.025Z,8.70
2019-05-18T08:21:54.025Z,8.70
2019-05-18T08:22:54.695Z,8.90
2019-05-18T08:23:53.978Z,8.70
2019-05-18T08:24:53.959Z,8.60
2019-05-18T08:25:54.023Z,8.80
2019-05-18T08:26:54.966Z,8.80
2019-05-18T08:27:54.045Z,9.30
2019-05-18T08:28:53.917Z,8.80
2019-05-18T08:29:53.951Z,9.40
2019-05-18T08:30:53.882Z,9.20
2019-05-18T08:31:53.864Z,9.50
2019-05-18T08:32:53.933Z,9.40
2019-05-18T08:33:53.881Z,9.50
2019-05-18T08:34:53.882Z,9.70
2019-05-18T08:35:53.885Z,9.70
2019-05-18T08:36:53.923Z,9.60
2019-05-18T08:37:53.808Z,9.10
2019-05-18T08:38:54.589Z,8.90
2019-05-18T08:39:53.869Z,9.00
2019-05-18T08:40:54.597Z,8.50
2019-05-18T08:41:54.597Z,8.40
2019-05-18T08:42:53.729Z,8.00
2019-05-18T08:43:54.253Z,8.10
2019-05-18T08:44:53.744Z,8.20
2019-05-18T08:45:53.806Z,8.40
2019-05-18T08:46:53.747Z,8.20
2019-05-18T08:47:53.704Z,8.50
2019-05-18T08:48:54.594Z,8.30
2019-05-18T08:49:53.688Z,8.20
2019-05-18T08:50:53.927Z,8.70
2019-05-18T08:52:07.485Z,8.40
2019-05-18T08:52:54.841Z,8.80
2019-05-18T08:53:53.644Z,8.30
2019-05-18T08:54:53.689Z,8.40
2019-05-18T08:55:53.705Z,8.60
2019-05-18T08:56:53.704Z,8.30
2019-05-18T08:57:53.710Z,7.80
2019-05-18T08:58:53.738Z,8.20
2019-05-18T08:59:53.667Z,7.90
2019-05-18T09:00:53.557Z,8.00
2019-05-18T09:01:53.702Z,8.60
2019-05-18T09:02:53.761Z,7.80
2019-05-18T09:03:53.573Z,7.90
2019-05-18T09:04:53.562Z,8.20
2019-05-18T09:05:53.559Z,7.30
2019-05-18T09:06:53.532Z,8.20
2019-05-18T09:07:53.525Z,7.50
2019-05-18T09:08:53.465Z,7.90
2019-05-18T09:09:54.367Z,7.50
2019-05-18T09:10:53.611Z,7.70
2019-05-18T09:11:53.497Z,7.90
2019-05-18T09:12:53.589Z,7.80
2019-05-18T09:13:53.415Z,8.70
2019-05-18T09:14:53.579Z,8.70
2019-05-18T09:15:53.450Z,8.70
2019-05-18T09:16:53.409Z,8.40
2019-05-18T09:17:53.387Z,8.50
2019-05-18T09:18:53.354Z,8.00
2019-05-18T09:19:53.410Z,8.30
2019-05-18T09:20:53.386Z,8.60
2019-05-18T09:21:53.332Z,8.90
2019-05-18T09:22:57.080Z,8.40
2019-05-18T09:23:53.338Z,8.10
2019-05-18T09:24:53.347Z,7.70
2019-05-18T09:25:53.323Z,8.40
2019-05-18T09:26:53.296Z,9.30
2019-05-18T09:27:54.294Z,9.00
2019-05-18T09:28:53.289Z,8.60
2019-05-18T09:29:53.275Z,8.30
2019-05-18T09:30:54.106Z,9.20
2019-05-18T09:31:53.389Z,9.40
2019-05-18T09:32:53.310Z,8.70
2019-05-18T09:33:53.253Z,9.00
2019-05-18T09:34:53.219Z,9.10
2019-05-18T09:35:53.319Z,8.80
2019-05-18T09:36:53.213Z,9.00
2019-05-18T09:37:53.187Z,9.30
2019-05-18T09:38:53.193Z,8.90
2019-05-18T09:39:53.157Z,8.90
2019-05-18T09:40:53.115Z,8.10
2019-05-18T09:41:53.215Z,8.20
2019-05-18T09:42:53.218Z,8.20
2019-05-18T09:43:53.091Z,7.70
2019-05-18T09:44:53.166Z,7.70
2019-05-18T09:45:53.130Z,7.90
2019-05-18T09:46:53.118Z,8.10
2019-05-18T09:47:53.111Z,7.90
2019-05-18T09:48:53.045Z,7.90
2019-05-18T09:49:53.076Z,7.80
2019-05-18T09:50:53.031Z,7.70
2019-05-18T09:51:53.127Z,7.70
2019-05-18T09:52:52.995Z,7.80
2019-05-18T09:53:53.025Z,7.50
2019-05-18T09:54:53.708Z,7.60
2019-05-18T09:55:52.965Z,7.20
2019-05-18T09:56:52.987Z,7.30
2019-05-18T09:57:53.193Z,7.70
2019-05-18T09:58:53.008Z,7.30
2019-05-18T09:59:53.231Z,8.60
2019-05-18T10:00:52.940Z,8.00
2019-05-18T10:01:52.918Z,8.10
2019-05-18T10:02:53.617Z,8.10
2019-05-18T10:03:52.902Z,7.20
2019-05-18T10:04:52.975Z,8.10
2019-05-18T10:05:52.861Z,8.10
2019-05-18T10:06:53.906Z,7.80
2019-05-18T10:07:52.869Z,7.30
2019-05-18T10:08:52.844Z,7.70
2019-05-18T10:09:52.856Z,7.50
2019-05-18T10:10:53.707Z,8.00
2019-05-18T10:11:52.799Z,8.00
2019-05-18T10:12:52.793Z,7.90
2019-05-18T10:13:52.830Z,7.40
2019-05-18T10:14:53.723Z,7.90
2019-05-18T10:15:52.814Z,7.80
2019-05-18T10:16:52.799Z,7.40
2019-05-18T10:17:52.755Z,7.50
2019-05-18T10:18:52.741Z,7.40
2019-05-18T10:19:52.703Z,7.90
2019-05-18T10:20:52.726Z,7.40
2019-05-18T10:21:52.920Z,7.60
2019-05-18T10:23:04.180Z,7.50
2019-05-18T10:23:53.675Z,7.10
2019-05-18T10:24:52.668Z,7.30
2019-05-18T10:25:52.680Z,7.00
2019-05-18T10:26:52.696Z,7.10
2019-05-18T10:27:52.684Z,7.00
2019-05-18T10:28:52.676Z,7.10
2019-05-18T10:29:52.636Z,6.90
2019-05-18T10:30:52.606Z,7.20
2019-05-18T10:31:52.599Z,6.80
2019-05-18T10:32:52.604Z,7.80
2019-05-18T10:33:52.596Z,7.70
2019-05-18T10:34:52.581Z,7.00
2019-05-18T10:35:52.556Z,7.70
2019-05-18T10:36:52.611Z,7.90
2019-05-18T10:37:52.589Z,6.90
2019-05-18T10:38:52.553Z,7.70
2019-05-18T10:39:52.534Z,7.80
2019-05-18T10:40:52.529Z,9.50
2019-05-18T10:41:52.494Z,8.80
2019-05-18T10:42:52.505Z,8.00
2019-05-18T10:43:52.502Z,7.40
2019-05-18T10:44:52.498Z,7.60
2019-05-18T10:45:52.481Z,7.10
2019-05-18T10:46:52.485Z,7.70
2019-05-18T10:47:52.467Z,7.30
2019-05-18T10:48:52.537Z,7.30
2019-05-18T10:49:52.440Z,6.90
2019-05-18T10:50:52.477Z,7.50
2019-05-18T10:51:52.444Z,7.70
2019-05-18T10:52:52.399Z,7.90
2019-05-18T10:53:52.399Z,8.00
2019-05-18T10:54:53.138Z,7.90
2019-05-18T10:55:52.360Z,8.00
2019-05-18T10:56:52.373Z,7.80
2019-05-18T10:57:52.338Z,7.80
2019-05-18T10:58:52.342Z,7.60
2019-05-18T10:59:52.342Z,7.50
2019-05-18T11:00:53.242Z,8.00
2019-05-18T11:01:52.325Z,8.00
2019-05-18T11:02:52.272Z,7.80
2019-05-18T11:03:52.284Z,7.30
2019-05-18T11:04:52.278Z,8.00
2019-05-18T11:05:52.314Z,7.50
2019-05-18T11:06:52.270Z,7.50
2019-05-18T11:07:52.227Z,8.20
2019-05-18T11:08:52.232Z,8.20
2019-05-18T11:09:52.229Z,8.30
2019-05-18T11:10:52.183Z,7.80
2019-05-18T11:11:52.199Z,7.70
2019-05-18T11:12:52.248Z,7.80
2019-05-18T11:13:52.158Z,8.00
2019-05-18T11:14:52.143Z,8.00
2019-05-18T11:15:52.157Z,8.40
2019-05-18T11:16:52.123Z,8.40
2019-05-18T11:17:52.134Z,8.60
2019-05-18T11:18:52.136Z,8.30
2019-05-18T11:19:52.183Z,8.70
2019-05-18T11:20:53.161Z,9.00
2019-05-18T11:21:52.102Z,9.10
2019-05-18T11:22:52.091Z,9.20
2019-05-18T11:23:52.084Z,8.90
2019-05-18T11:24:52.134Z,9.00
2019-05-18T11:25:52.146Z,8.80
2019-05-18T11:26:52.043Z,9.10
2019-05-18T11:27:52.046Z,9.20
2019-05-18T11:28:52.315Z,8.70
2019-05-18T11:29:52.046Z,9.60
2019-05-18T11:30:52.647Z,9.40
2019-05-18T11:31:52.653Z,8.90
2019-05-18T11:32:52.032Z,9.50
2019-05-18T11:33:51.984Z,9.00
2019-05-18T11:34:52.016Z,9.10
2019-05-18T11:35:51.943Z,9.10
2019-05-18T11:36:51.954Z,8.90
2019-05-18T11:37:52.649Z,9.10
2019-05-18T11:38:51.903Z,8.90
2019-05-18T11:39:51.926Z,8.40
2019-05-18T11:40:51.871Z,8.30
2019-05-18T11:41:51.907Z,8.40
2019-05-18T11:42:51.946Z,8.70
2019-05-18T11:43:51.917Z,8.90
2019-05-18T11:44:51.877Z,9.50
2019-05-18T11:45:51.819Z,8.90
2019-05-18T11:46:51.813Z,8.10
2019-05-18T11:47:51.854Z,7.70
2019-05-18T11:48:51.876Z,8.30
2019-05-18T11:49:51.879Z,8.30
2019-05-18T11:50:51.817Z,7.60
2019-05-18T11:51:51.809Z,7.30
2019-05-18T11:52:51.809Z,7.40
2019-05-18T11:53:58.275Z,7.10
2019-05-18T11:54:52.734Z,7.30
2019-05-18T11:55:51.750Z,8.20
2019-05-18T11:56:51.728Z,7.90
2019-05-18T11:57:51.734Z,8.20
2019-05-18T11:58:51.774Z,7.90
2019-05-18T11:59:51.742Z,7.80
2019-05-18T12:00:51.714Z,8.10
2019-05-18T12:01:52.661Z,7.70
2019-05-18T12:02:52.665Z,7.60
2019-05-18T12:03:51.655Z,7.50
2019-05-18T12:04:52.160Z,7.40
2019-05-18T12:05:51.791Z,7.60
2019-05-18T12:07:01.191Z,7.50
2019-05-18T12:08:16.378Z,7.80
2019-05-18T12:08:52.060Z,7.60
2019-05-18T12:09:52.364Z,7.60
2019-05-18T12:13:53.272Z,6.60
2019-05-18T12:15:27.514Z,6.40
2019-05-18T12:17:40.726Z,5.90
2019-05-18T12:18:38.904Z,5.70
2019-05-18T12:19:38.973Z,5.60
2019-05-18T12:20:38.073Z,5.60
2019-05-18T12:21:38.058Z,5.60
2019-05-18T12:51:01.224Z,5.30
2019-05-18T12:51:59.577Z,5.20
2019-05-18T12:52:59.471Z,5.10
2019-05-18T12:53:59.480Z,5.10
2019-05-18T12:54:59.452Z,5.30
2019-05-18T12:55:59.979Z,4.70
2019-05-18T13:04:24.683Z,4.90
2019-05-18T13:13:22.421Z,5.00
2019-05-18T13:14:22.100Z,4.80
2019-05-18T13:15:20.751Z,4.30
2019-05-18T13:16:19.174Z,4.10
2019-05-18T13:17:27.246Z,4.20
2019-05-18T13:18:27.657Z,3.90
2019-05-18T13:19:16.715Z,6.10
2019-05-18T13:20:15.159Z,10.40
2019-05-18T13:21:13.912Z,5.00
2019-05-18T13:22:14.708Z,7.10
2019-05-18T13:23:14.685Z,8.80
2019-05-18T13:24:42.990Z,6.10
2019-05-18T13:25:15.011Z,6.20
2019-05-18T13:26:14.659Z,5.30
2019-05-18T13:27:14.908Z,6.00
2019-05-18T13:28:14.698Z,7.30
2019-05-18T13:29:13.873Z,6.10
2019-05-18T13:30:19.555Z,5.60
2019-05-18T13:31:14.669Z,4.80
2019-05-18T13:32:14.670Z,5.40
2019-05-18T13:33:15.347Z,6.20
2019-05-18T13:34:14.899Z,8.20
2019-05-18T13:35:15.745Z,4.50
2019-05-18T13:36:13.818Z,7.30
2019-05-18T13:37:14.671Z,5.50
2019-05-18T13:38:18.022Z,12.40
2019-05-18T13:39:13.756Z,9.10
2019-05-18T13:40:21.541Z,5.10
2019-05-18T13:41:15.484Z,16.00
2019-05-18T13:42:24.302Z,9.00
2019-05-18T13:43:13.649Z,8.30
2019-05-18T13:44:13.686Z,17.10
2019-05-18T13:45:13.641Z,20.50
2019-05-18T13:46:13.731Z,8.20
2019-05-18T13:47:13.650Z,10.00
2019-05-18T13:48:13.648Z,6.90
2019-05-18T13:49:13.589Z,8.40
2019-05-18T13:50:13.605Z,8.20
2019-05-18T13:51:13.662Z,6.00
2019-05-18T13:52:13.685Z,6.00
2019-05-18T13:53:13.679Z,7.70